Weather at Aboriginal Shire of Mapoon airstrip

Public forecast

Using degrees Celsius for public forecast. Weather courtesy of forecast.io.

Closest aviation weather report (METAR) to Aboriginal Shire of Mapoon airstrip

Report is more than 6 hours old.

Closest report is Weipa Airport, 37.8 nm (70.0 km) S. Retrieved 2022/05/19 17:30 UTC (8 days ago):

YBWP 191730Z AUTO 15005KT 9000 // NCD 22/21 Q1012

Closest aviation forecast (TAF) to Aboriginal Shire of Mapoon airstrip

Closest forecast is Horn Island Airport, 90.8 nm (168.2 km) NNE. Retrieved 2022/05/27 12:00 UTC (44 minutes ago):

TAF YHID 271101Z 2712/2812 12012KT 9999 -SHRA SCT025 FM280000 10015KT 9999 NSW SCT025